N875QS KMIA-KASE
Flight info
| Callsign | N875QS |
|---|---|
| Flight time | N/A |
| Altitude | 43000 |
| Route | HURCN4 SMELZ Q116 JAWJA MGM UJM RZC GCK PUB RODDY KANON HAREI DBL |
| Aircraft | C700/M-SBDGHM1RWXY/LB2 |
Departure
| Time | 2026-04-30 22:17 |
|---|---|
| Airport | Miami International Airport (KMIA) |
Arrival
| Time | N/A |
|---|---|
| Airport | Aspen-Pitkin County Airport (Sardy Field) (KASE) |
| Time | Latitude | Longitude | Altitude | Speed | Heading |
|---|---|---|---|---|---|
| 2026-04-30 20:51 | 25.80568 | -80.29088 | 13 ft | 0 kts | 179° |
| 2026-04-30 22:10 | 25.80567 | -80.29088 | 22 ft | 2 kts | 179° |
| 2026-04-30 22:10 | 25.80514 | -80.29078 | 13 ft | 13 kts | 161° |
| 2026-04-30 22:10 | 25.80479 | -80.29072 | 13 ft | 9 kts | 178° |
| 2026-04-30 22:10 | 25.80448 | -80.29100 | 14 ft | 8 kts | 257° |
| 2026-04-30 22:11 | 25.80432 | -80.29412 | 15 ft | 32 kts | 267° |
| 2026-04-30 22:11 | 25.80422 | -80.29601 | 16 ft | 14 kts | 267° |
| 2026-04-30 22:11 | 25.80414 | -80.29756 | 18 ft | 25 kts | 268° |
| 2026-04-30 22:12 | 25.80409 | -80.29946 | 15 ft | 25 kts | 268° |
| 2026-04-30 22:12 | 25.80402 | -80.30062 | 15 ft | 7 kts | 238° |
| 2026-04-30 22:12 | 25.80386 | -80.30065 | 17 ft | 0 kts | 175° |
| 2026-04-30 22:12 | 25.80383 | -80.30064 | 16 ft | 3 kts | 175° |
| 2026-04-30 22:13 | 25.80310 | -80.30058 | 15 ft | 18 kts | 175° |
| 2026-04-30 22:13 | 25.80195 | -80.30054 | 14 ft | 15 kts | 178° |
| 2026-04-30 22:13 | 25.80167 | -80.30052 | 13 ft | 0 kts | 174° |
| 2026-04-30 22:15 | 25.80150 | -80.30050 | 13 ft | 9 kts | 174° |
| 2026-04-30 22:15 | 25.80079 | -80.30020 | 11 ft | 11 kts | 117° |
| 2026-04-30 22:16 | 25.80077 | -80.29986 | 10 ft | 0 kts | 83° |
| 2026-04-30 22:17 | 25.80219 | -80.27321 | 820 ft | 195 kts | 88° |
| 2026-04-30 22:17 | 25.80407 | -80.25728 | 1616 ft | 221 kts | 86° |
| 2026-04-30 22:17 | 25.80595 | -80.21830 | 3116 ft | 281 kts | 80° |
| 2026-04-30 22:18 | 25.81261 | -80.19788 | 3839 ft | 279 kts | 62° |
| 2026-04-30 22:18 | 25.83978 | -80.16740 | 5293 ft | 281 kts | 26° |
| 2026-04-30 22:19 | 25.87636 | -80.15807 | 6742 ft | 271 kts | 359° |
| 2026-04-30 22:19 | 25.89536 | -80.15871 | 7444 ft | 275 kts | 349° |
| 2026-04-30 22:19 | 25.93220 | -80.17069 | 8888 ft | 279 kts | 340° |
| 2026-04-30 22:20 | 25.95086 | -80.17713 | 9647 ft | 282 kts | 339° |
| 2026-04-30 22:20 | 25.98462 | -80.20055 | 11058 ft | 305 kts | 313° |
| 2026-04-30 22:20 | 25.99778 | -80.21934 | 11789 ft | 310 kts | 300° |
| 2026-04-30 22:21 | 26.00682 | -80.24106 | 12529 ft | 310 kts | 291° |
| 2026-04-30 22:21 | 26.01482 | -80.26344 | 13283 ft | 313 kts | 291° |
| 2026-04-30 22:21 | 26.02298 | -80.28599 | 14016 ft | 316 kts | 292° |
| 2026-04-30 22:21 | 26.03124 | -80.30879 | 14709 ft | 320 kts | 292° |
| 2026-04-30 22:22 | 26.03956 | -80.33184 | 15417 ft | 322 kts | 292° |
| 2026-04-30 22:22 | 26.04792 | -80.35502 | 16144 ft | 324 kts | 292° |
| 2026-04-30 22:22 | 26.05632 | -80.37830 | 16883 ft | 325 kts | 292° |
| 2026-04-30 22:22 | 26.06468 | -80.40148 | 17638 ft | 329 kts | 292° |
| 2026-04-30 22:23 | 26.07322 | -80.42520 | 18379 ft | 332 kts | 292° |
| 2026-04-30 22:23 | 26.08186 | -80.44919 | 19046 ft | 336 kts | 292° |
| 2026-04-30 22:23 | 26.09041 | -80.47297 | 20166 ft | 329 kts | 292° |
| 2026-04-30 22:23 | 26.09895 | -80.49672 | 21061 ft | 337 kts | 292° |
| 2026-04-30 22:24 | 26.10789 | -80.52154 | 21575 ft | 354 kts | 292° |
| 2026-04-30 22:24 | 26.11831 | -80.54667 | 22105 ft | 361 kts | 300° |
| 2026-04-30 22:24 | 26.13253 | -80.56971 | 22641 ft | 362 kts | 309° |
| 2026-04-30 22:24 | 26.15003 | -80.58993 | 23179 ft | 364 kts | 318° |
| 2026-04-30 22:25 | 26.17053 | -80.60679 | 23688 ft | 369 kts | 327° |
| 2026-04-30 22:25 | 26.19361 | -80.61979 | 24144 ft | 375 kts | 335° |
| 2026-04-30 22:25 | 26.21776 | -80.63121 | 24612 ft | 379 kts | 334° |
| 2026-04-30 22:25 | 26.24213 | -80.64290 | 25088 ft | 383 kts | 334° |
| 2026-04-30 22:26 | 26.29154 | -80.66663 | 26077 ft | 390 kts | 334° |
| 2026-04-30 22:26 | 26.31656 | -80.67859 | 26576 ft | 393 kts | 334° |
| 2026-04-30 22:26 | 26.34176 | -80.69068 | 27074 ft | 396 kts | 334° |
| 2026-04-30 22:27 | 26.36713 | -80.70287 | 27599 ft | 398 kts | 334° |
| 2026-04-30 22:27 | 26.39178 | -80.71702 | 28119 ft | 399 kts | 325° |
| 2026-04-30 22:27 | 26.43394 | -80.75745 | 29203 ft | 403 kts | 310° |
| 2026-04-30 22:28 | 26.47209 | -80.80364 | 30277 ft | 411 kts | 311° |
| 2026-04-30 22:28 | 26.49164 | -80.82722 | 30771 ft | 415 kts | 311° |
| 2026-04-30 22:29 | 26.55048 | -80.89849 | 32280 ft | 416 kts | 311° |
| 2026-04-30 22:29 | 26.57010 | -80.92225 | 32816 ft | 417 kts | 311° |
| 2026-04-30 22:30 | 26.65402 | -81.02409 | 32933 ft | 464 kts | 311° |
| 2026-04-30 22:31 | 26.71896 | -81.10306 | 32925 ft | 455 kts | 311° |
| 2026-04-30 22:32 | 26.82654 | -81.23419 | 32928 ft | 461 kts | 311° |
| 2026-04-30 22:33 | 26.93438 | -81.36605 | 32928 ft | 457 kts | 311° |
| 2026-04-30 22:35 | 27.04136 | -81.49624 | 32919 ft | 457 kts | 315° |
| 2026-04-30 22:36 | 27.17377 | -81.59741 | 32930 ft | 463 kts | 325° |
| 2026-04-30 22:37 | 27.28169 | -81.67536 | 32935 ft | 458 kts | 325° |
| 2026-04-30 22:38 | 27.38849 | -81.75273 | 32930 ft | 457 kts | 325° |
| 2026-04-30 22:39 | 27.46957 | -81.80907 | 32931 ft | 462 kts | 332° |
| 2026-04-30 22:40 | 27.64741 | -81.89585 | 32933 ft | 461 kts | 334° |
| 2026-04-30 22:41 | 27.79392 | -81.96749 | 32933 ft | 460 kts | 334° |
| 2026-04-30 22:43 | 27.96977 | -82.05372 | 32937 ft | 456 kts | 333° |
| 2026-04-30 22:44 | 28.08586 | -82.11289 | 32937 ft | 457 kts | 327° |
| 2026-04-30 22:45 | 28.24116 | -82.23552 | 32941 ft | 449 kts | 322° |
| 2026-04-30 22:47 | 28.39510 | -82.35876 | 32948 ft | 452 kts | 322° |
| 2026-04-30 22:48 | 28.49739 | -82.44090 | 32948 ft | 447 kts | 321° |
| 2026-04-30 22:49 | 28.64978 | -82.56354 | 32944 ft | 450 kts | 321° |
| 2026-04-30 22:51 | 28.80217 | -82.68683 | 32938 ft | 446 kts | 321° |
| 2026-04-30 22:52 | 28.87798 | -82.74827 | 32930 ft | 446 kts | 321° |
| 2026-04-30 22:53 | 28.97941 | -82.83066 | 32931 ft | 449 kts | 321° |
| 2026-04-30 22:53 | 29.05581 | -82.89286 | 32937 ft | 450 kts | 321° |
| 2026-04-30 22:55 | 29.18261 | -82.99634 | 32926 ft | 445 kts | 320° |
| 2026-04-30 22:56 | 29.28379 | -83.07915 | 32934 ft | 449 kts | 320° |
| 2026-04-30 22:57 | 29.41038 | -83.18303 | 32930 ft | 446 kts | 320° |
| 2026-04-30 22:58 | 29.51083 | -83.26575 | 32922 ft | 445 kts | 320° |
| 2026-04-30 22:59 | 29.66244 | -83.39086 | 32930 ft | 447 kts | 320° |